createdAt,value
2018-05-09T00:00:37.743Z,12.92
2018-05-09T00:02:05.117Z,12.89
2018-05-09T00:03:33.413Z,12.88
2018-05-09T00:04:59.641Z,12.86
2018-05-09T00:06:27.952Z,12.84
2018-05-09T00:07:54.179Z,12.82
2018-05-09T00:09:21.552Z,12.81
2018-05-09T00:10:49.953Z,12.80
2018-05-09T00:12:16.073Z,12.78
2018-05-09T00:13:43.668Z,12.77
2018-05-09T00:15:16.953Z,12.77
2018-05-09T00:16:39.214Z,12.76
2018-05-09T00:18:06.583Z,12.78
2018-05-09T00:19:32.720Z,12.77
2018-05-09T00:21:01.155Z,12.76
2018-05-09T00:22:28.442Z,12.75
2018-05-09T00:23:55.857Z,12.73
2018-05-09T00:25:21.957Z,12.72
2018-05-09T00:26:50.412Z,12.71
2018-05-09T00:28:16.822Z,12.69
2018-05-09T00:29:45.221Z,12.70
2018-05-09T00:31:11.668Z,12.68
2018-05-09T00:32:38.974Z,12.67
2018-05-09T00:34:06.272Z,12.65
2018-05-09T00:35:34.684Z,12.65
2018-05-09T00:37:01.949Z,12.63
2018-05-09T00:38:29.229Z,12.62
2018-05-09T00:39:55.681Z,12.61
2018-05-09T00:41:22.897Z,12.60
2018-05-09T00:42:50.265Z,12.58
2018-05-09T00:44:18.696Z,12.56
2018-05-09T00:45:45.825Z,12.53
2018-05-09T00:47:12.184Z,12.52
2018-05-09T00:48:40.382Z,12.50
2018-05-09T00:50:06.804Z,12.48
2018-05-09T00:51:33.766Z,12.47
2018-05-09T00:53:01.013Z,12.46
2018-05-09T00:54:28.424Z,12.45
2018-05-09T00:55:56.780Z,12.44
2018-05-09T00:57:23.964Z,12.45
2018-05-09T00:58:50.342Z,12.45
2018-05-09T01:00:17.634Z,12.44
2018-05-09T01:01:45.043Z,12.42
2018-05-09T01:03:13.373Z,12.41
2018-05-09T01:04:39.690Z,12.39
2018-05-09T01:06:08.148Z,12.36
2018-05-09T01:07:34.306Z,12.34
2018-05-09T01:09:02.855Z,12.33
2018-05-09T01:10:30.109Z,12.32
2018-05-09T01:11:56.254Z,12.31
2018-05-09T01:13:23.791Z,12.30
2018-05-09T01:14:51.156Z,12.31
2018-05-09T01:16:19.237Z,12.31
2018-05-09T01:17:45.709Z,12.31
2018-05-09T01:19:13.044Z,12.29
2018-05-09T01:20:40.466Z,12.27
2018-05-09T01:22:07.770Z,12.23
2018-05-09T01:23:36.160Z,12.23
2018-05-09T01:25:02.325Z,12.22
2018-05-09T01:26:29.736Z,12.20
2018-05-09T01:27:57.058Z,12.18
2018-05-09T01:29:24.228Z,12.16
2018-05-09T01:30:52.713Z,12.15
2018-05-09T01:32:20.026Z,12.14
2018-05-09T01:33:46.142Z,12.13
2018-05-09T01:35:13.347Z,12.12
2018-05-09T01:36:40.688Z,12.12
2018-05-09T01:38:08.038Z,12.13
2018-05-09T01:39:35.325Z,12.13
2018-05-09T01:41:02.760Z,12.13
2018-05-09T01:42:31.226Z,12.11
2018-05-09T01:43:57.481Z,12.10
2018-05-09T01:45:24.681Z,12.09
2018-05-09T01:46:53.233Z,12.08
2018-05-09T01:48:20.511Z,12.06
2018-05-09T01:49:47.708Z,12.05
2018-05-09T01:51:15.081Z,12.04
2018-05-09T01:52:42.243Z,12.03
2018-05-09T01:54:08.670Z,12.01
2018-05-09T01:55:36.062Z,12.00
2018-05-09T01:57:04.163Z,11.99
2018-05-09T01:58:30.409Z,11.96
2018-05-09T01:59:57.829Z,11.94
2018-05-09T02:01:25.255Z,11.92
2018-05-09T02:02:53.608Z,11.91
2018-05-09T02:04:19.832Z,11.91
2018-05-09T02:05:47.217Z,11.90
2018-05-09T02:07:15.825Z,11.89
2018-05-09T02:08:42.014Z,11.86
2018-05-09T02:10:10.554Z,11.85
2018-05-09T02:11:37.783Z,11.85
2018-05-09T02:13:05.029Z,11.84
2018-05-09T02:14:31.251Z,11.83
2018-05-09T02:15:58.564Z,11.83
2018-05-09T02:17:25.891Z,11.82
2018-05-09T02:18:54.070Z,11.82
2018-05-09T02:20:21.527Z,11.81
2018-05-09T02:21:47.683Z,11.80
2018-05-09T02:23:16.119Z,11.80
2018-05-09T02:24:42.410Z,11.81
2018-05-09T02:26:09.602Z,11.82
2018-05-09T02:27:36.903Z,11.83
2018-05-09T02:29:04.165Z,11.82
2018-05-09T02:30:31.312Z,11.85
2018-05-09T02:31:58.762Z,11.85
2018-05-09T02:33:27.448Z,11.83
2018-05-09T02:34:54.690Z,11.81
2018-05-09T02:36:22.016Z,11.79
2018-05-09T02:37:48.371Z,11.77
2018-05-09T02:39:16.715Z,11.76
2018-05-09T02:40:43.095Z,11.76
2018-05-09T02:42:11.454Z,11.74
2018-05-09T02:43:37.409Z,11.73
2018-05-09T02:45:05.853Z,11.73
2018-05-09T02:46:31.924Z,11.73
2018-05-09T02:47:59.300Z,11.72
2018-05-09T02:49:27.687Z,11.71
2018-05-09T02:50:53.934Z,11.71
2018-05-09T02:52:21.417Z,11.71
2018-05-09T02:53:48.627Z,11.72
2018-05-09T02:55:16.780Z,11.74
2018-05-09T02:56:43.135Z,11.73
2018-05-09T02:58:11.368Z,11.77
2018-05-09T02:59:37.697Z,11.78
2018-05-09T03:01:04.926Z,11.79
2018-05-09T03:02:32.091Z,11.78
2018-05-09T03:04:00.476Z,11.76
2018-05-09T03:05:27.620Z,11.75
2018-05-09T03:06:53.915Z,11.72
2018-05-09T03:08:22.129Z,11.70
2018-05-09T03:09:49.405Z,11.68
2018-05-09T03:11:15.849Z,11.65
2018-05-09T03:12:43.172Z,11.63
2018-05-09T03:14:10.385Z,11.59
2018-05-09T03:15:37.809Z,11.55
2018-05-09T03:17:05.149Z,11.52
2018-05-09T03:18:32.559Z,11.49
2018-05-09T03:19:59.923Z,11.48
2018-05-09T03:21:27.132Z,11.46
2018-05-09T03:22:55.587Z,11.44
2018-05-09T03:24:21.685Z,11.44
2018-05-09T03:25:50.065Z,11.43
2018-05-09T03:27:16.628Z,11.42
2018-05-09T03:28:43.967Z,11.40
2018-05-09T03:30:11.081Z,11.38
2018-05-09T03:31:39.638Z,11.37
2018-05-09T03:33:06.848Z,11.35
2018-05-09T03:34:34.299Z,11.34
2018-05-09T03:36:00.388Z,11.34
2018-05-09T03:37:28.901Z,11.33
2018-05-09T03:38:55.157Z,11.33
2018-05-09T03:40:22.545Z,11.33
2018-05-09T03:41:50.925Z,11.34
2018-05-09T03:43:17.311Z,11.34
2018-05-09T03:44:44.551Z,11.35
2018-05-09T03:46:11.890Z,11.37
2018-05-09T03:47:40.348Z,11.39
2018-05-09T03:49:06.681Z,11.41
2018-05-09T03:50:33.952Z,11.44
2018-05-09T03:52:01.210Z,11.47
2018-05-09T03:53:28.472Z,11.48
2018-05-09T03:54:55.764Z,11.50
2018-05-09T03:56:24.074Z,11.51
2018-05-09T03:57:50.573Z,11.54
2018-05-09T03:59:17.772Z,11.56
2018-05-09T04:00:45.108Z,11.59
2018-05-09T04:02:12.092Z,11.61
2018-05-09T04:03:39.491Z,11.63
2018-05-09T04:05:06.748Z,11.65
2018-05-09T04:06:35.024Z,11.65
2018-05-09T04:08:01.317Z,11.66
2018-05-09T04:09:29.609Z,11.66
2018-05-09T04:10:55.705Z,11.67
2018-05-09T04:12:23.178Z,11.68
2018-05-09T04:13:50.631Z,11.70
2018-05-09T04:15:18.978Z,11.72
2018-05-09T04:16:46.413Z,11.76
2018-05-09T04:18:12.480Z,11.78
2018-05-09T04:19:40.958Z,11.81
2018-05-09T04:21:07.295Z,11.85
2018-05-09T04:22:34.778Z,11.88
2018-05-09T04:24:01.928Z,11.91
2018-05-09T04:25:29.994Z,11.95
2018-05-09T04:26:55.978Z,11.98
2018-05-09T04:28:23.150Z,12.04
2018-05-09T04:29:50.521Z,12.09
2018-05-09T04:31:18.599Z,12.14
2018-05-09T04:32:44.966Z,12.18
2018-05-09T04:34:12.254Z,12.22
2018-05-09T04:35:40.566Z,12.26
2018-05-09T04:37:07.841Z,12.30
2018-05-09T04:38:35.216Z,12.34
2018-05-09T04:40:01.551Z,12.38
2018-05-09T04:41:28.646Z,12.42
2018-05-09T04:42:55.919Z,12.45
2018-05-09T04:44:24.245Z,12.48
2018-05-09T04:45:51.655Z,12.53
2018-05-09T04:47:17.784Z,12.56
2018-05-09T04:48:46.228Z,12.60
2018-05-09T04:50:12.510Z,12.64
2018-05-09T04:51:40.030Z,12.69
2018-05-09T04:53:07.366Z,12.74
2018-05-09T04:54:34.606Z,12.78
2018-05-09T04:56:03.025Z,12.82
2018-05-09T04:57:29.222Z,12.86
2018-05-09T04:58:56.356Z,12.90
2018-05-09T05:00:23.813Z,12.94
2018-05-09T05:01:51.147Z,12.99
2018-05-09T05:03:19.670Z,13.03
2018-05-09T05:04:47.023Z,13.08
2018-05-09T05:06:13.477Z,13.12
2018-05-09T05:07:40.767Z,13.16
2018-05-09T05:09:07.939Z,13.20
2018-05-09T05:10:35.213Z,13.25
2018-05-09T05:12:03.687Z,13.31
2018-05-09T05:13:30.993Z,13.37
2018-05-09T05:14:57.240Z,13.43
2018-05-09T05:16:24.778Z,13.50
2018-05-09T05:17:53.142Z,13.58
2018-05-09T05:19:20.544Z,13.66
2018-05-09T05:20:47.966Z,13.74
2018-05-09T05:22:14.269Z,13.82
2018-05-09T05:23:42.901Z,13.91
2018-05-09T05:25:09.144Z,14.00
2018-05-09T05:26:36.741Z,14.09
2018-05-09T05:28:04.077Z,14.17
2018-05-09T05:29:32.585Z,14.27
2018-05-09T05:31:00.051Z,14.35
2018-05-09T05:32:27.342Z,14.44
2018-05-09T05:33:53.576Z,14.52
2018-05-09T05:35:20.978Z,14.64
2018-05-09T05:36:49.407Z,14.80
2018-05-09T05:38:15.733Z,14.97
2018-05-09T05:39:43.164Z,15.12
2018-05-09T05:41:10.665Z,15.28
2018-05-09T05:42:38.034Z,15.42
2018-05-09T05:44:05.442Z,15.55
2018-05-09T05:45:32.909Z,15.63
2018-05-09T05:47:00.042Z,15.71
2018-05-09T05:48:28.604Z,15.82
2018-05-09T05:49:56.096Z,15.94
2018-05-09T05:51:23.536Z,16.03
2018-05-09T05:52:50.021Z,16.15
2018-05-09T05:54:17.336Z,16.28
2018-05-09T05:55:44.821Z,16.39
2018-05-09T05:57:12.296Z,16.53
2018-05-09T05:58:39.137Z,16.67
2018-05-09T06:00:06.392Z,16.77
2018-05-09T06:01:34.036Z,16.89
2018-05-09T06:03:02.660Z,17.01
2018-05-09T06:04:29.024Z,17.15
2018-05-09T06:05:56.363Z,17.28
2018-05-09T06:07:23.713Z,17.43
2018-05-09T06:08:51.288Z,17.59
2018-05-09T06:10:18.802Z,17.71
2018-05-09T06:11:47.319Z,17.82
2018-05-09T06:13:13.639Z,17.95
2018-05-09T06:14:42.037Z,18.03
2018-05-09T06:16:08.547Z,18.14
2018-05-09T06:17:37.100Z,18.22
2018-05-09T06:19:03.611Z,18.29
2018-05-09T06:20:32.087Z,18.33
2018-05-09T06:21:59.488Z,18.37
2018-05-09T06:23:25.820Z,18.37
2018-05-09T06:24:54.084Z,18.39
2018-05-09T06:26:20.434Z,18.50
2018-05-09T06:27:47.966Z,18.61
2018-05-09T06:29:16.465Z,18.74
2018-05-09T06:30:43.878Z,18.81
2018-05-09T06:32:10.468Z,18.88
2018-05-09T06:33:37.768Z,18.97
2018-05-09T06:35:05.359Z,19.03
2018-05-09T06:36:32.714Z,19.08
2018-05-09T06:38:00.235Z,19.12
2018-05-09T06:39:27.679Z,19.14
2018-05-09T06:40:55.199Z,19.16
2018-05-09T06:42:23.767Z,19.14
2018-05-09T06:43:50.075Z,19.16
2018-05-09T06:45:18.441Z,19.11
2018-05-09T06:46:45.779Z,19.16
2018-05-09T06:48:13.319Z,19.16
2018-05-09T06:49:40.717Z,19.18
2018-05-09T06:51:07.357Z,19.21
2018-05-09T06:52:34.940Z,19.18
2018-05-09T06:54:02.084Z,19.18
2018-05-09T06:55:29.631Z,19.29
2018-05-09T06:56:56.887Z,19.34
2018-05-09T06:58:24.449Z,19.39
2018-05-09T06:59:52.111Z,19.40
2018-05-09T07:01:19.400Z,19.40
2018-05-09T07:02:46.818Z,19.45
2018-05-09T07:04:14.047Z,19.49
2018-05-09T07:05:41.602Z,19.57
2018-05-09T07:07:09.118Z,19.65
2018-05-09T07:08:37.648Z,19.71
2018-05-09T07:10:04.106Z,19.74
2018-05-09T07:11:32.592Z,19.83
2018-05-09T07:12:59.159Z,19.86
2018-05-09T07:14:27.385Z,19.88
2018-05-09T07:15:54.779Z,19.95
2018-05-09T07:17:22.396Z,20.02
2018-05-09T07:18:48.818Z,20.11
2018-05-09T07:20:15.950Z,20.17
2018-05-09T07:21:44.659Z,20.26
2018-05-09T07:23:11.194Z,20.36
2018-05-09T07:24:38.515Z,20.42
2018-05-09T07:26:06.956Z,20.48
2018-05-09T07:27:34.473Z,20.51
2018-05-09T07:29:01.928Z,20.53
2018-05-09T07:30:28.360Z,20.58
2018-05-09T07:31:55.787Z,20.60
2018-05-09T07:33:22.991Z,20.62
2018-05-09T07:34:50.383Z,20.67
2018-05-09T07:36:18.327Z,20.68
2018-05-09T07:37:44.931Z,20.73
2018-05-09T07:39:13.404Z,20.79
2018-05-09T07:40:40.790Z,20.84
2018-05-09T07:42:07.354Z,20.88
2018-05-09T07:43:35.820Z,20.92
2018-05-09T07:45:01.899Z,20.95
2018-05-09T07:46:29.407Z,21.01
2018-05-09T07:47:57.817Z,21.04
2018-05-09T07:49:24.223Z,21.14
2018-05-09T07:50:51.758Z,21.17
2018-05-09T07:52:20.308Z,21.18
2018-05-09T07:53:47.797Z,21.20
2018-05-09T07:55:15.089Z,21.23
2018-05-09T07:56:41.727Z,21.30
2018-05-09T07:58:09.479Z,21.32
2018-05-09T07:59:36.844Z,21.38
2018-05-09T08:01:05.364Z,21.45
2018-05-09T08:02:31.632Z,21.51
2018-05-09T08:03:59.206Z,21.52
2018-05-09T08:05:26.052Z,21.53
2018-05-09T08:06:53.366Z,21.52
2018-05-09T08:08:21.011Z,21.52
2018-05-09T08:09:48.106Z,21.49
2018-05-09T08:11:15.771Z,21.52
2018-05-09T08:12:44.282Z,21.53
2018-05-09T08:14:10.901Z,21.58
2018-05-09T08:15:38.331Z,21.63
2018-05-09T08:17:05.713Z,21.70
2018-05-09T08:18:34.060Z,21.72
2018-05-09T08:20:00.495Z,21.75
2018-05-09T08:21:28.117Z,21.79
2018-05-09T08:22:56.713Z,21.86
2018-05-09T08:24:23.268Z,21.93
2018-05-09T08:25:50.683Z,21.99
2018-05-09T08:27:18.469Z,22.04
2018-05-09T08:28:46.092Z,22.04
2018-05-09T08:30:14.408Z,22.07
2018-05-09T08:31:40.748Z,22.12
2018-05-09T08:33:08.061Z,22.19
2018-05-09T08:34:36.559Z,22.25
2018-05-09T08:36:02.865Z,22.28
2018-05-09T08:37:30.373Z,22.35
2018-05-09T08:38:58.972Z,22.41
2018-05-09T08:40:26.501Z,22.46
2018-05-09T08:41:53.143Z,22.52
2018-05-09T08:43:20.760Z,22.60
2018-05-09T08:44:49.265Z,22.67
2018-05-09T08:46:15.698Z,22.73
2018-05-09T08:47:44.308Z,22.77
2018-05-09T08:49:10.535Z,22.81
2018-05-09T08:50:38.971Z,22.84
2018-05-09T08:52:05.374Z,22.87
2018-05-09T08:53:32.632Z,22.85
2018-05-09T08:55:00.081Z,22.85
2018-05-09T08:56:27.638Z,22.89
2018-05-09T08:57:56.080Z,22.91
2018-05-09T08:59:22.727Z,22.97
2018-05-09T09:00:50.378Z,22.99
2018-05-09T09:02:17.832Z,23.00
2018-05-09T09:03:46.215Z,23.06
2018-05-09T09:05:12.824Z,23.12
2018-05-09T09:08:07.649Z,23.25
2018-05-09T09:09:35.282Z,23.30
2018-05-09T09:11:02.705Z,23.39
2018-05-09T09:12:31.244Z,23.43
2018-05-09T09:13:57.577Z,23.39
2018-05-09T09:15:26.166Z,23.40
2018-05-09T09:16:53.711Z,23.49
2018-05-09T09:18:20.079Z,23.57
2018-05-09T09:19:47.758Z,23.60
2018-05-09T09:21:15.370Z,23.63
2018-05-09T09:22:43.867Z,23.67
2018-05-09T09:24:10.473Z,23.71
2018-05-09T09:25:37.091Z,23.71
2018-05-09T09:27:04.691Z,23.72
2018-05-09T09:28:31.819Z,23.77
2018-05-09T09:29:59.222Z,23.79
2018-05-09T09:31:26.653Z,23.80
2018-05-09T09:32:54.053Z,23.83
2018-05-09T09:34:22.758Z,23.86
2018-05-09T09:35:49.404Z,23.92
2018-05-09T09:37:16.891Z,24.00
2018-05-09T09:38:44.501Z,24.03
2018-05-09T09:40:13.253Z,24.03
2018-05-09T09:41:40.588Z,24.01
2018-05-09T09:43:07.141Z,23.99
2018-05-09T09:44:34.817Z,24.03
2018-05-09T09:46:02.474Z,24.09
2018-05-09T09:47:29.931Z,24.11
2018-05-09T09:48:57.196Z,24.13
2018-05-09T09:50:24.677Z,24.10
2018-05-09T09:51:52.273Z,24.04
2018-05-09T09:53:19.764Z,24.03
2018-05-09T09:54:48.452Z,24.02
2018-05-09T09:56:15.051Z,23.97
2018-05-09T09:57:43.518Z,24.00
2018-05-09T09:59:11.118Z,24.04
2018-05-09T10:00:37.093Z,24.09
2018-05-09T10:02:04.534Z,24.18
2018-05-09T10:03:33.200Z,24.23
2018-05-09T10:04:59.737Z,24.27
2018-05-09T10:06:27.110Z,24.30
2018-05-09T10:07:54.622Z,24.36
2018-05-09T10:09:21.913Z,24.42
2018-05-09T10:10:50.564Z,24.41
2018-05-09T10:12:16.961Z,24.36
2018-05-09T10:13:44.770Z,24.32
2018-05-09T10:15:11.913Z,24.31
2018-05-09T10:16:40.535Z,24.37
2018-05-09T10:18:07.783Z,24.45
2018-05-09T10:19:34.474Z,24.47
2018-05-09T10:21:01.959Z,24.45
2018-05-09T10:22:30.520Z,24.43
2018-05-09T10:23:56.942Z,24.44
2018-05-09T10:25:24.547Z,24.58
2018-05-09T10:26:52.191Z,24.80
2018-05-09T10:28:19.906Z,24.94
2018-05-09T10:29:47.346Z,25.04
2018-05-09T10:31:15.929Z,25.08
2018-05-09T10:32:42.884Z,24.99
2018-05-09T10:34:09.568Z,24.91
2018-05-09T10:35:37.058Z,24.89
2018-05-09T10:37:05.810Z,24.92
2018-05-09T10:38:33.158Z,24.93
2018-05-09T10:40:00.440Z,24.92
2018-05-09T10:41:27.928Z,25.02
2018-05-09T10:42:55.635Z,25.20
2018-05-09T10:44:22.219Z,25.41
2018-05-09T10:45:50.617Z,25.40
2018-05-09T10:47:18.359Z,25.21
2018-05-09T10:48:44.560Z,25.04
2018-05-09T10:50:13.001Z,24.92
2018-05-09T10:51:39.307Z,24.90
2018-05-09T10:53:07.785Z,24.92
2018-05-09T10:54:35.423Z,24.89
2018-05-09T10:56:01.465Z,24.83
2018-05-09T10:57:29.159Z,24.82
2018-05-09T10:58:57.232Z,24.82
2018-05-09T11:00:23.907Z,24.82
2018-05-09T11:01:51.490Z,24.80
2018-05-09T11:03:19.542Z,24.79
2018-05-09T11:04:46.136Z,24.89
2018-05-09T11:06:14.841Z,24.99
2018-05-09T11:07:42.202Z,25.07
2018-05-09T11:09:08.763Z,25.14
2018-05-09T11:10:37.059Z,25.16
2018-05-09T11:12:04.446Z,25.19
2018-05-09T11:13:31.910Z,25.19
2018-05-09T11:14:58.522Z,25.17
2018-05-09T11:16:26.107Z,25.19
2018-05-09T11:17:53.681Z,25.19
2018-05-09T11:19:21.447Z,25.23
2018-05-09T11:20:50.009Z,25.32
2018-05-09T11:22:16.654Z,25.47
2018-05-09T11:23:43.979Z,25.60
2018-05-09T11:25:11.380Z,25.76
2018-05-09T11:26:38.898Z,25.94
2018-05-09T11:28:06.696Z,26.19
2018-05-09T11:29:34.227Z,26.32
2018-05-09T11:31:01.762Z,26.24
2018-05-09T11:32:30.236Z,26.27
2018-05-09T11:33:56.565Z,26.44
2018-05-09T11:35:24.013Z,26.57
2018-05-09T11:36:52.126Z,26.48
2018-05-09T11:38:19.496Z,26.48
2018-05-09T11:39:47.152Z,26.51
2018-05-09T11:41:13.661Z,26.59
2018-05-09T11:42:41.277Z,26.70
2018-05-09T11:44:08.872Z,26.98
2018-05-09T11:45:36.502Z,27.23
2018-05-09T11:47:03.713Z,27.42
2018-05-09T11:48:31.247Z,27.51
2018-05-09T11:49:59.764Z,27.51
2018-05-09T11:51:26.331Z,27.48
2018-05-09T11:52:53.717Z,27.40
2018-05-09T11:54:22.346Z,27.32
2018-05-09T11:55:49.306Z,27.14
2018-05-09T11:57:15.491Z,27.10
2018-05-09T11:58:43.679Z,27.15
2018-05-09T12:00:11.368Z,27.18
2018-05-09T12:01:38.933Z,27.36
2018-05-09T12:03:05.435Z,27.42
2018-05-09T12:04:33.053Z,27.42
2018-05-09T12:06:00.597Z,27.22
2018-05-09T12:07:28.122Z,27.18
2018-05-09T12:08:55.793Z,27.06
2018-05-09T12:10:23.323Z,27.14
2018-05-09T12:11:51.924Z,27.30
2018-05-09T12:13:18.558Z,27.44
2018-05-09T12:14:47.061Z,27.41
2018-05-09T12:16:13.396Z,27.35
2018-05-09T12:17:42.024Z,27.19
2018-05-09T12:19:09.514Z,27.32
2018-05-09T12:20:36.258Z,27.48
2018-05-09T12:22:03.639Z,27.64
2018-05-09T12:23:31.265Z,27.81
2018-05-09T12:24:58.788Z,27.90
2018-05-09T12:26:27.418Z,28.03
2018-05-09T12:27:53.961Z,28.18
2018-05-09T12:29:21.593Z,28.11
2018-05-09T12:30:49.224Z,27.84
2018-05-09T12:32:16.838Z,27.79
2018-05-09T12:33:44.504Z,27.82
2018-05-09T12:35:12.242Z,27.79
2018-05-09T12:36:39.869Z,27.80
2018-05-09T12:38:07.419Z,27.84
2018-05-09T12:39:36.073Z,27.67
2018-05-09T12:41:02.345Z,27.53
2018-05-09T12:42:29.896Z,27.52
2018-05-09T12:43:57.555Z,27.57
2018-05-09T12:45:24.948Z,27.47
2018-05-09T12:46:52.710Z,27.43
2018-05-09T12:48:20.277Z,27.43
2018-05-09T12:49:48.050Z,27.50
2018-05-09T12:51:15.780Z,27.53
2018-05-09T12:52:44.429Z,27.61
2018-05-09T12:54:10.924Z,27.54
2018-05-09T12:55:38.598Z,27.52
2018-05-09T12:57:07.183Z,27.51
2018-05-09T12:58:33.817Z,27.56
2018-05-09T13:00:02.451Z,27.66
2018-05-09T13:01:28.901Z,27.53
2018-05-09T13:02:57.218Z,27.55
2018-05-09T13:04:23.951Z,27.63
2018-05-09T13:05:52.494Z,27.68
2018-05-09T13:07:20.206Z,27.54
2018-05-09T13:08:46.757Z,27.40
2018-05-09T13:10:13.985Z,27.21
2018-05-09T13:11:41.574Z,27.13
2018-05-09T13:13:10.326Z,27.03
2018-05-09T13:14:36.643Z,26.92
2018-05-09T13:16:04.190Z,26.89
2018-05-09T13:17:31.786Z,26.81
2018-05-09T13:18:59.320Z,26.75
2018-05-09T13:20:27.617Z,26.76
2018-05-09T13:21:55.452Z,26.82
2018-05-09T13:23:21.208Z,26.81
2018-05-09T13:24:48.720Z,26.73
2018-05-09T13:26:16.717Z,26.60
2018-05-09T13:27:44.358Z,26.54
2018-05-09T13:29:10.848Z,26.49
2018-05-09T13:30:37.959Z,26.51
2018-05-09T13:32:06.506Z,26.51
2018-05-09T13:33:34.167Z,26.52
2018-05-09T13:35:00.491Z,26.52
2018-05-09T13:36:27.932Z,26.47
2018-05-09T13:37:55.644Z,26.38
2018-05-09T13:39:23.350Z,26.31
2018-05-09T13:40:51.930Z,26.24
2018-05-09T13:42:18.044Z,26.23
2018-05-09T13:43:45.625Z,26.21
2018-05-09T13:45:12.626Z,26.21
2018-05-09T13:46:40.329Z,26.23
2018-05-09T13:48:07.739Z,26.29
2018-05-09T13:49:35.425Z,26.33
2018-05-09T13:51:03.869Z,26.36
2018-05-09T13:52:31.221Z,26.35
2018-05-09T13:53:57.796Z,26.34
2018-05-09T13:55:26.162Z,26.29
2018-05-09T13:56:52.638Z,26.18
2018-05-09T13:58:20.286Z,26.15
2018-05-09T13:59:47.974Z,26.14
2018-05-09T14:01:15.662Z,26.12
2018-05-09T14:02:43.188Z,26.08
2018-05-09T14:04:10.930Z,26.02
2018-05-09T14:05:38.415Z,26.01
2018-05-09T14:07:07.115Z,25.96
2018-05-09T14:08:33.627Z,25.94
2018-05-09T14:10:00.977Z,25.90
2018-05-09T14:11:28.362Z,25.87
2018-05-09T14:12:55.904Z,25.83
2018-05-09T14:14:23.402Z,25.81
2018-05-09T14:15:51.100Z,25.78
2018-05-09T14:17:18.583Z,25.71
2018-05-09T14:18:46.976Z,25.64
2018-05-09T14:20:19.538Z,25.60
2018-05-09T14:21:41.742Z,25.58
2018-05-09T14:23:08.152Z,25.54
2018-05-09T14:24:35.771Z,25.51
2018-05-09T14:26:04.278Z,25.45
2018-05-09T14:27:30.860Z,25.44
2018-05-09T14:28:59.204Z,25.43
2018-05-09T14:30:25.845Z,25.43
2018-05-09T14:31:53.162Z,25.41
2018-05-09T14:33:20.871Z,25.40
2018-05-09T14:34:48.493Z,25.37
2018-05-09T14:36:15.969Z,25.33
2018-05-09T14:37:43.364Z,25.28
2018-05-09T14:39:12.069Z,25.26
2018-05-09T14:40:38.755Z,25.24
2018-05-09T14:42:06.228Z,25.24
2018-05-09T14:43:34.889Z,25.22
2018-05-09T14:45:01.241Z,25.17
2018-05-09T14:46:28.701Z,25.10
2018-05-09T14:47:56.231Z,25.08
2018-05-09T14:49:23.908Z,25.04
2018-05-09T14:50:51.627Z,25.02
2018-05-09T14:52:19.224Z,25.00
2018-05-09T14:53:47.623Z,24.96
2018-05-09T14:55:14.141Z,24.94
2018-05-09T14:56:42.693Z,24.92
2018-05-09T14:58:10.265Z,24.90
2018-05-09T14:59:37.967Z,24.89
2018-05-09T15:01:04.589Z,24.86
2018-05-09T15:02:32.156Z,24.85
2018-05-09T15:03:59.516Z,24.84
2018-05-09T15:05:28.039Z,24.83
2018-05-09T15:06:55.805Z,24.80
2018-05-09T15:08:22.408Z,24.78
2018-05-09T15:09:50.904Z,24.77
2018-05-09T15:11:17.590Z,24.75
2018-05-09T15:12:45.278Z,24.73
2018-05-09T15:14:12.884Z,24.70
2018-05-09T15:15:40.517Z,24.64
2018-05-09T15:17:09.159Z,24.63
2018-05-09T15:18:35.747Z,24.64
2018-05-09T15:20:03.352Z,24.61
2018-05-09T15:21:30.829Z,24.59
2018-05-09T15:22:58.421Z,24.57
2018-05-09T15:24:27.078Z,24.54
2018-05-09T15:25:53.472Z,24.51
2018-05-09T15:27:21.333Z,24.48
2018-05-09T15:28:48.850Z,24.44
2018-05-09T15:30:16.290Z,24.41
2018-05-09T15:31:43.948Z,24.36
2018-05-09T15:33:11.595Z,24.35
2018-05-09T15:34:39.210Z,24.35
2018-05-09T15:36:06.762Z,24.36
2018-05-09T15:37:34.433Z,24.38
2018-05-09T15:39:02.047Z,24.37
2018-05-09T15:40:29.391Z,24.35
2018-05-09T15:41:57.762Z,24.35
2018-05-09T15:43:25.383Z,24.31
2018-05-09T15:44:51.914Z,24.29
2018-05-09T15:46:19.460Z,24.26
2018-05-09T15:47:48.193Z,24.24
2018-05-09T15:49:15.737Z,24.20
2018-05-09T15:50:42.428Z,24.16
2018-05-09T15:52:09.863Z,24.12
2018-05-09T15:53:37.356Z,24.09
2018-05-09T15:55:06.048Z,24.06
2018-05-09T15:56:32.467Z,24.03
2018-05-09T15:58:00.933Z,24.00
2018-05-09T15:59:27.341Z,23.96
2018-05-09T16:00:54.941Z,23.89
2018-05-09T16:02:22.673Z,23.83
2018-05-09T16:03:50.907Z,23.78
2018-05-09T16:05:17.144Z,23.75
2018-05-09T16:06:44.620Z,23.71
2018-05-09T16:08:12.134Z,23.69
2018-05-09T16:09:40.619Z,23.67
2018-05-09T16:11:08.119Z,23.66
2018-05-09T16:12:34.417Z,23.65
2018-05-09T16:14:01.907Z,23.63
2018-05-09T16:15:29.116Z,23.62
2018-05-09T16:16:56.757Z,23.59
2018-05-09T16:18:25.378Z,23.55
2018-05-09T16:19:53.049Z,23.51
2018-05-09T16:21:19.451Z,23.47
2018-05-09T16:22:46.959Z,23.43
2018-05-09T16:24:15.519Z,23.41
2018-05-09T16:25:41.456Z,23.39
2018-05-09T16:27:09.134Z,23.37
2018-05-09T16:28:36.717Z,23.32
2018-05-09T16:30:04.079Z,23.30
2018-05-09T16:31:32.449Z,23.27
2018-05-09T16:32:59.006Z,23.24
2018-05-09T16:34:26.713Z,23.22
2018-05-09T16:35:53.982Z,23.20
2018-05-09T16:37:20.905Z,23.16
2018-05-09T16:38:49.433Z,23.12
2018-05-09T16:40:15.904Z,23.08
2018-05-09T16:41:44.464Z,23.06
2018-05-09T16:43:10.811Z,23.04
2018-05-09T16:44:38.435Z,23.03
2018-05-09T16:46:05.942Z,23.01
2018-05-09T16:47:33.415Z,22.98
2018-05-09T16:49:02.055Z,22.96
2018-05-09T16:50:28.500Z,22.95
2018-05-09T16:51:56.111Z,22.94
2018-05-09T16:53:23.617Z,22.93
2018-05-09T16:54:52.159Z,22.90
2018-05-09T16:56:19.706Z,22.89
2018-05-09T16:57:46.070Z,22.86
2018-05-09T16:59:14.746Z,22.82
2018-05-09T17:00:41.192Z,22.81
2018-05-09T17:02:08.609Z,22.79
2018-05-09T17:03:36.307Z,22.78
2018-05-09T17:05:03.718Z,22.76
2018-05-09T17:06:32.298Z,22.71
2018-05-09T17:07:59.572Z,22.63
2018-05-09T17:09:27.230Z,22.56
2018-05-09T17:10:53.885Z,22.51
2018-05-09T17:12:20.994Z,22.47
2018-05-09T17:13:48.547Z,22.41
2018-05-09T17:15:15.964Z,22.36
2018-05-09T17:16:43.514Z,22.31
2018-05-09T17:18:10.967Z,22.26
2018-05-09T17:19:38.314Z,22.22
2018-05-09T17:21:06.344Z,22.18
2018-05-09T17:22:32.788Z,22.13
2018-05-09T17:24:03.294Z,22.08
2018-05-09T17:25:27.382Z,22.05
2018-05-09T17:26:54.879Z,22.02
2018-05-09T17:28:23.455Z,21.98
2018-05-09T17:29:49.589Z,21.92
2018-05-09T17:31:18.042Z,21.86
2018-05-09T17:32:45.565Z,21.81
2018-05-09T17:34:11.702Z,21.75
2018-05-09T17:35:39.962Z,21.67
2018-05-09T17:37:06.805Z,21.60
2018-05-09T17:38:34.148Z,21.53
2018-05-09T17:40:01.563Z,21.48
2018-05-09T17:41:28.879Z,21.42
2018-05-09T17:42:56.342Z,21.36
2018-05-09T17:44:24.722Z,21.32
2018-05-09T17:45:52.131Z,21.28
2018-05-09T17:47:19.807Z,21.23
2018-05-09T17:48:46.329Z,21.17
2018-05-09T17:50:13.766Z,21.13
2018-05-09T17:51:42.246Z,21.08
2018-05-09T17:53:08.777Z,21.04
2018-05-09T17:54:37.393Z,21.01
2018-05-09T17:56:04.846Z,20.95
2018-05-09T17:57:31.265Z,20.91
2018-05-09T17:58:58.876Z,20.87
2018-05-09T18:00:26.334Z,20.83
2018-05-09T18:01:53.772Z,20.79
2018-05-09T18:03:21.230Z,20.71
2018-05-09T18:04:49.934Z,20.64
2018-05-09T18:06:16.282Z,20.60
2018-05-09T18:07:43.760Z,20.55
2018-05-09T18:09:11.486Z,20.51
2018-05-09T18:10:39.750Z,20.48
2018-05-09T18:12:06.025Z,20.43
2018-05-09T18:13:34.529Z,20.39
2018-05-09T18:15:01.967Z,20.36
2018-05-09T18:16:29.440Z,20.32
2018-05-09T18:17:56.799Z,20.27
2018-05-09T18:19:23.336Z,20.23
2018-05-09T18:20:50.888Z,20.18
2018-05-09T18:22:18.348Z,20.12
2018-05-09T18:23:45.822Z,20.06
2018-05-09T18:25:14.485Z,20.02
2018-05-09T18:26:42.090Z,19.99
2018-05-09T18:28:08.404Z,19.93
2018-05-09T18:29:35.833Z,19.87
2018-05-09T18:31:03.181Z,19.83
2018-05-09T18:32:31.680Z,19.77
2018-05-09T18:33:57.843Z,19.70
2018-05-09T18:35:25.194Z,19.66
2018-05-09T18:36:52.899Z,19.60
2018-05-09T18:38:21.428Z,19.55
2018-05-09T18:39:47.905Z,19.49
2018-05-09T18:41:15.318Z,19.44
2018-05-09T18:42:42.645Z,19.38
2018-05-09T18:44:10.224Z,19.33
2018-05-09T18:45:37.672Z,19.27
2018-05-09T18:47:04.932Z,19.23